createdAt,value
2023-03-11T00:00:23.097Z,0.75
2023-03-11T00:02:52.584Z,0.69
2023-03-11T00:05:22.851Z,0.70
2023-03-11T00:07:49.588Z,0.76
2023-03-11T00:10:19.960Z,0.63
2023-03-11T00:13:04.294Z,0.60
2023-03-11T00:15:31.271Z,0.64
2023-03-11T00:17:58.135Z,0.57
2023-03-11T00:20:29.387Z,0.67
2023-03-11T00:22:59.685Z,0.61
2023-03-11T00:25:29.648Z,0.62
2023-03-11T00:27:57.083Z,0.71
2023-03-11T00:30:25.404Z,0.70
2023-03-11T00:32:57.524Z,0.68
2023-03-11T00:35:30.764Z,0.61
2023-03-11T00:38:04.166Z,0.66
2023-03-11T00:40:32.437Z,0.74
2023-03-11T00:42:59.480Z,0.88
2023-03-11T00:45:27.512Z,0.83
2023-03-11T00:47:55.276Z,0.83
2023-03-11T00:50:27.926Z,0.98
2023-03-11T00:52:54.815Z,0.92
2023-03-11T00:55:24.610Z,0.91
2023-03-11T00:57:52.886Z,0.87
2023-03-11T01:00:21.038Z,0.75
2023-03-11T01:02:47.546Z,0.71
2023-03-11T01:05:14.373Z,0.81
2023-03-11T01:07:41.313Z,0.86
2023-03-11T01:10:09.939Z,0.94
2023-03-11T01:12:36.467Z,0.90
2023-03-11T01:15:04.397Z,0.77
2023-03-11T01:17:30.831Z,0.77
2023-03-11T01:19:57.291Z,0.85
2023-03-11T01:22:23.853Z,0.76
2023-03-11T01:24:50.385Z,0.77
2023-03-11T01:27:16.925Z,1.04
2023-03-11T01:29:43.370Z,1.00
2023-03-11T01:32:10.809Z,1.04
2023-03-11T01:34:37.257Z,0.80
2023-03-11T01:37:03.886Z,0.76
2023-03-11T01:39:30.592Z,0.94
2023-03-11T01:41:57.115Z,1.03
2023-03-11T01:44:23.672Z,0.92
2023-03-11T01:46:52.974Z,0.83
2023-03-11T01:49:21.649Z,0.82
2023-03-11T01:52:00.079Z,0.66
2023-03-11T01:54:37.489Z,0.78
2023-03-11T01:57:12.140Z,0.80
2023-03-11T01:59:44.798Z,0.75
2023-03-11T02:02:27.860Z,0.76
2023-03-11T02:04:55.018Z,0.96
2023-03-11T02:07:21.773Z,0.89
2023-03-11T02:09:48.245Z,0.86
2023-03-11T02:12:15.165Z,0.83
2023-03-11T02:14:47.973Z,1.20
2023-03-11T02:17:15.466Z,1.25
2023-03-11T02:19:41.875Z,1.29
2023-03-11T02:22:11.705Z,1.99
2023-03-11T02:25:05.224Z,1.72
2023-03-11T02:27:36.295Z,2.44
2023-03-11T02:30:03.602Z,1.56
2023-03-11T02:32:30.231Z,2.12
2023-03-11T02:34:56.717Z,2.63
2023-03-11T02:37:23.151Z,1.76
2023-03-11T02:39:52.894Z,3.34
2023-03-11T02:42:26.162Z,1.72
2023-03-11T02:45:09.769Z,2.31
2023-03-11T02:47:39.753Z,1.83
2023-03-11T02:50:09.290Z,1.47
2023-03-11T02:52:36.499Z,0.97
2023-03-11T02:55:03.990Z,0.99
2023-03-11T02:57:30.514Z,1.23
2023-03-11T02:59:57.028Z,1.18
2023-03-11T03:02:23.505Z,1.25
2023-03-11T03:04:50.020Z,0.88
2023-03-11T03:07:16.495Z,0.73
2023-03-11T03:09:42.990Z,0.66
2023-03-11T03:12:09.479Z,0.72
2023-03-11T03:14:35.978Z,0.79
2023-03-11T03:17:02.636Z,0.74
2023-03-11T03:19:29.183Z,0.67
2023-03-11T03:21:55.768Z,0.97
2023-03-11T03:24:22.220Z,1.13
2023-03-11T03:26:48.732Z,1.28
2023-03-11T03:29:15.217Z,1.13
2023-03-11T03:31:41.764Z,1.07
2023-03-11T03:34:08.767Z,0.71
2023-03-11T03:36:36.302Z,0.70
2023-03-11T03:39:04.402Z,0.96
2023-03-11T03:41:30.872Z,0.96
2023-03-11T03:43:57.562Z,1.22
2023-03-11T03:46:24.380Z,2.16
2023-03-11T03:48:50.902Z,1.28
2023-03-11T03:51:17.573Z,1.33
2023-03-11T03:53:44.927Z,1.42
2023-03-11T03:56:14.657Z,1.16
2023-03-11T03:58:41.422Z,0.95
2023-03-11T04:01:09.016Z,0.78
2023-03-11T04:03:36.273Z,0.88
2023-03-11T04:06:21.659Z,1.16
2023-03-11T04:08:48.562Z,0.91
2023-03-11T04:11:18.463Z,0.71
2023-03-11T04:13:45.196Z,0.69
2023-03-11T04:16:23.524Z,0.84
2023-03-11T04:18:51.125Z,0.84
2023-03-11T04:21:17.612Z,0.82
2023-03-11T04:23:44.687Z,0.85
2023-03-11T04:26:11.282Z,1.06
2023-03-11T04:28:37.776Z,1.05
2023-03-11T04:31:04.518Z,1.08
2023-03-11T04:33:31.426Z,0.82
2023-03-11T04:35:58.477Z,0.71
2023-03-11T04:38:25.462Z,0.65
2023-03-11T04:40:51.924Z,0.74
2023-03-11T04:43:18.360Z,0.92
2023-03-11T04:45:44.892Z,0.84
2023-03-11T04:48:11.361Z,0.60
2023-03-11T04:50:37.850Z,0.47
2023-03-11T04:53:04.337Z,0.42
2023-03-11T04:55:30.809Z,0.47
2023-03-11T04:57:57.254Z,0.43
2023-03-11T05:00:23.783Z,0.41
2023-03-11T05:02:51.374Z,0.53
2023-03-11T05:05:18.336Z,0.53
2023-03-11T05:07:45.267Z,0.56
2023-03-11T05:10:12.786Z,0.42
2023-03-11T05:12:40.204Z,0.54
2023-03-11T05:15:07.722Z,0.54
2023-03-11T05:17:34.238Z,0.65
2023-03-11T05:20:00.710Z,0.59
2023-03-11T05:22:27.195Z,0.58
2023-03-11T05:24:53.651Z,0.71
2023-03-11T05:27:20.183Z,0.63
2023-03-11T05:29:46.705Z,0.77
2023-03-11T05:32:13.480Z,0.81
2023-03-11T05:34:40.249Z,0.94
2023-03-11T05:37:06.820Z,1.08
2023-03-11T05:39:34.206Z,1.18
2023-03-11T05:42:00.932Z,0.96
2023-03-11T05:44:27.539Z,0.96
2023-03-11T05:46:54.119Z,0.92
2023-03-11T05:49:20.625Z,1.17
2023-03-11T05:51:47.685Z,1.16
2023-03-11T05:54:14.145Z,1.09
2023-03-11T05:56:41.403Z,1.17
2023-03-11T05:59:08.777Z,1.12
2023-03-11T06:01:35.836Z,1.18
2023-03-11T06:04:02.708Z,1.35
2023-03-11T06:06:30.072Z,1.31
2023-03-11T06:08:57.072Z,1.22
2023-03-11T06:11:23.873Z,1.08
2023-03-11T06:13:52.758Z,0.99
2023-03-11T06:16:19.244Z,1.05
2023-03-11T06:18:45.734Z,1.05
2023-03-11T06:21:30.418Z,1.30
2023-03-11T06:23:56.928Z,1.33
2023-03-11T06:26:24.223Z,1.40
2023-03-11T06:28:52.041Z,1.49
2023-03-11T06:31:22.102Z,1.39
2023-03-11T06:33:48.746Z,1.39
2023-03-11T06:36:17.260Z,1.19
2023-03-11T06:38:43.891Z,1.19
2023-03-11T06:41:10.847Z,1.17
2023-03-11T06:43:37.314Z,1.56
2023-03-11T06:46:16.622Z,1.70
2023-03-11T06:48:43.408Z,2.00
2023-03-11T06:51:10.095Z,1.84
2023-03-11T06:53:36.618Z,1.44
2023-03-11T06:56:08.275Z,1.57
2023-03-11T06:58:37.280Z,1.62
2023-03-11T07:01:06.523Z,1.84
2023-03-11T07:03:33.027Z,1.53
2023-03-11T07:06:00.118Z,1.64
2023-03-11T07:08:27.923Z,1.63
2023-03-11T07:11:07.636Z,1.71
2023-03-11T07:13:35.081Z,1.72
2023-03-11T07:16:02.365Z,1.66
2023-03-11T07:18:29.293Z,1.73
2023-03-11T07:20:55.937Z,1.67
2023-03-11T07:23:22.475Z,1.55
2023-03-11T07:25:49.419Z,1.76
2023-03-11T07:28:15.881Z,1.93
2023-03-11T07:30:45.229Z,2.30
2023-03-11T07:33:12.636Z,2.25
2023-03-11T07:35:39.218Z,2.07
2023-03-11T07:38:07.832Z,2.56
2023-03-11T07:40:35.289Z,3.04
2023-03-11T07:43:01.781Z,3.21
2023-03-11T07:45:28.244Z,3.53
2023-03-11T07:47:57.066Z,4.54
2023-03-11T07:50:23.579Z,6.75
2023-03-11T07:52:50.140Z,7.01
2023-03-11T07:55:16.654Z,4.80
2023-03-11T07:57:43.183Z,3.88
2023-03-11T08:00:10.705Z,3.81
2023-03-11T08:02:37.247Z,2.93
2023-03-11T08:05:03.846Z,2.95
2023-03-11T08:07:31.864Z,2.88
2023-03-11T08:09:58.341Z,2.79
2023-03-11T08:12:24.952Z,3.18
2023-03-11T08:14:51.439Z,3.07
2023-03-11T08:17:17.943Z,2.89
2023-03-11T08:19:44.415Z,2.83
2023-03-11T08:22:10.997Z,2.67
2023-03-11T08:24:37.468Z,2.51
2023-03-11T08:27:04.039Z,2.21
2023-03-11T08:29:30.524Z,1.63
2023-03-11T08:31:57.336Z,1.46
2023-03-11T08:34:23.786Z,1.54
2023-03-11T08:36:50.430Z,1.52
2023-03-11T08:39:16.899Z,1.44
2023-03-11T08:41:43.391Z,0.96
2023-03-11T08:44:09.826Z,1.09
2023-03-11T08:46:38.875Z,0.91
2023-03-11T08:49:06.444Z,0.85
2023-03-11T08:51:34.496Z,0.87
2023-03-11T08:54:02.070Z,1.01
2023-03-11T08:56:29.678Z,1.30
2023-03-11T08:58:56.307Z,2.47
2023-03-11T09:01:22.816Z,0.96
2023-03-11T09:03:49.266Z,1.71
2023-03-11T09:06:17.182Z,2.81
2023-03-11T09:08:45.361Z,3.14
2023-03-11T09:11:12.354Z,2.22
2023-03-11T09:13:39.373Z,1.79
2023-03-11T09:16:06.151Z,2.19
2023-03-11T09:18:32.640Z,2.20
2023-03-11T09:21:00.574Z,2.12
2023-03-11T09:23:27.049Z,2.72
2023-03-11T09:25:53.702Z,3.09
2023-03-11T09:28:20.337Z,2.13
2023-03-11T09:30:46.812Z,2.52
2023-03-11T09:33:13.322Z,2.79
2023-03-11T09:35:39.932Z,1.86
2023-03-11T09:38:06.511Z,2.37
2023-03-11T09:40:51.747Z,1.65
2023-03-11T09:43:34.671Z,1.91
2023-03-11T09:46:27.349Z,1.43
2023-03-11T09:49:26.689Z,1.69
2023-03-11T09:52:07.154Z,4.63
2023-03-11T09:54:40.254Z,8.18
2023-03-11T09:57:31.750Z,6.59
2023-03-11T10:00:02.242Z,4.59
2023-03-11T10:02:29.369Z,3.60
2023-03-11T10:05:06.691Z,3.03
2023-03-11T10:07:40.086Z,2.26
2023-03-11T10:10:12.115Z,2.24
2023-03-11T10:13:08.487Z,2.11
2023-03-11T10:15:57.619Z,2.01
2023-03-11T10:18:44.409Z,4.26
2023-03-11T10:21:27.154Z,2.87
2023-03-11T10:24:03.294Z,2.45
2023-03-11T10:26:41.685Z,2.54
2023-03-11T10:29:40.390Z,2.54
2023-03-11T10:32:29.912Z,1.66
2023-03-11T10:35:22.993Z,1.01
2023-03-11T10:38:10.124Z,1.16
2023-03-11T10:40:41.010Z,1.16
2023-03-11T10:43:36.935Z,1.24
2023-03-11T10:46:15.255Z,0.89
2023-03-11T10:48:41.767Z,0.93
2023-03-11T10:51:20.301Z,1.52
2023-03-11T10:53:52.731Z,1.47
2023-03-11T10:56:35.599Z,1.48
2023-03-11T10:59:04.494Z,1.66
2023-03-11T11:01:31.092Z,1.74
2023-03-11T11:04:01.263Z,1.97
2023-03-11T11:06:33.106Z,1.70
2023-03-11T11:09:06.526Z,1.80
2023-03-11T11:11:33.375Z,1.81
2023-03-11T11:14:00.353Z,2.19
2023-03-11T11:16:28.439Z,2.62
2023-03-11T11:19:10.404Z,2.28
2023-03-11T11:21:38.324Z,2.59
2023-03-11T11:24:24.638Z,2.21
2023-03-11T11:27:14.837Z,1.64
2023-03-11T11:29:42.161Z,2.28
2023-03-11T11:32:14.701Z,2.46
2023-03-11T11:34:41.901Z,2.21
2023-03-11T11:37:13.614Z,2.08
2023-03-11T11:39:55.333Z,1.81
2023-03-11T11:42:26.024Z,1.97
2023-03-11T11:45:29.842Z,2.19
2023-03-11T11:48:03.353Z,2.40
2023-03-11T11:50:40.235Z,2.57
2023-03-11T11:53:28.694Z,2.12
2023-03-11T11:55:55.143Z,2.28
2023-03-11T11:58:22.704Z,2.67
2023-03-11T12:01:08.900Z,2.20
2023-03-11T12:03:54.224Z,2.19
2023-03-11T12:06:49.402Z,1.45
2023-03-11T12:09:35.280Z,1.76
2023-03-11T12:12:14.951Z,2.11
2023-03-11T12:15:14.127Z,2.07
2023-03-11T12:17:46.497Z,2.01
2023-03-11T12:20:28.122Z,2.21
2023-03-11T12:23:15.605Z,2.39
2023-03-11T12:26:06.711Z,2.50
2023-03-11T12:28:33.129Z,2.48
2023-03-11T12:31:08.856Z,2.55
2023-03-11T12:33:37.082Z,2.49
2023-03-11T12:36:05.614Z,2.14
2023-03-11T12:38:34.808Z,2.20
2023-03-11T12:41:05.780Z,2.58
2023-03-11T12:43:32.210Z,3.58
2023-03-11T12:46:00.824Z,4.31
2023-03-11T12:48:27.254Z,3.78
2023-03-11T12:50:54.106Z,2.87
2023-03-11T12:53:40.839Z,2.69
2023-03-11T12:56:10.203Z,2.84
2023-03-11T12:58:56.911Z,3.00
2023-03-11T13:02:01.131Z,3.30
2023-03-11T13:04:39.811Z,2.92
2023-03-11T13:07:31.332Z,2.56
2023-03-11T13:10:28.521Z,2.23
2023-03-11T13:12:55.130Z,2.57
2023-03-11T13:15:21.526Z,2.30
2023-03-11T13:18:04.504Z,2.51
2023-03-11T13:21:01.177Z,2.96
2023-03-11T13:23:45.549Z,2.73
2023-03-11T13:26:21.015Z,2.60
2023-03-11T13:29:08.545Z,2.34
2023-03-11T13:31:53.112Z,2.39
2023-03-11T13:34:37.704Z,2.31
2023-03-11T13:37:16.253Z,2.26
2023-03-11T13:40:05.903Z,2.54
2023-03-11T13:42:43.656Z,2.35
2023-03-11T13:45:32.703Z,2.05
2023-03-11T13:48:07.075Z,2.32
2023-03-11T13:50:45.581Z,2.20
2023-03-11T13:53:28.590Z,2.36
2023-03-11T13:55:55.149Z,2.34
2023-03-11T13:58:24.844Z,2.55
2023-03-11T14:00:57.808Z,2.80
2023-03-11T14:03:28.107Z,3.10
2023-03-11T14:06:02.685Z,2.89
2023-03-11T14:08:32.844Z,2.45
2023-03-11T14:11:18.270Z,2.81
2023-03-11T14:13:49.637Z,3.27
2023-03-11T14:16:20.679Z,2.67
2023-03-11T14:19:15.447Z,2.71
2023-03-11T14:21:50.785Z,2.86
2023-03-11T14:24:22.296Z,3.87
2023-03-11T14:26:52.011Z,3.68
2023-03-11T14:29:22.506Z,3.22
2023-03-11T14:31:49.066Z,3.50
2023-03-11T14:34:21.532Z,3.46
2023-03-11T14:36:51.436Z,3.46
2023-03-11T14:39:29.151Z,3.31
2023-03-11T14:42:02.460Z,3.06
2023-03-11T14:44:33.390Z,3.23
2023-03-11T14:47:10.782Z,3.42
2023-03-11T14:49:39.172Z,3.18
2023-03-11T14:52:18.469Z,3.32
2023-03-11T14:54:47.548Z,3.30
2023-03-11T14:57:46.598Z,3.20
2023-03-11T15:00:55.987Z,2.85
2023-03-11T15:03:29.176Z,3.27
2023-03-11T15:06:01.314Z,3.24
2023-03-11T15:08:33.774Z,3.47
2023-03-11T15:11:03.295Z,3.72
2023-03-11T15:13:30.470Z,3.46
2023-03-11T15:15:58.962Z,3.37
2023-03-11T15:18:30.838Z,3.34
2023-03-11T15:21:21.885Z,3.03
2023-03-11T15:24:04.354Z,3.54
2023-03-11T15:26:34.327Z,3.71
2023-03-11T15:29:06.618Z,3.68
2023-03-11T15:31:37.491Z,3.88
2023-03-11T15:34:18.727Z,3.66
2023-03-11T15:36:56.624Z,3.81
2023-03-11T15:39:32.181Z,3.88
2023-03-11T15:42:06.699Z,3.46
2023-03-11T15:44:40.948Z,3.47
2023-03-11T15:47:14.557Z,3.74
2023-03-11T15:49:41.488Z,3.74
2023-03-11T15:52:09.099Z,3.50
2023-03-11T15:54:35.956Z,3.71
2023-03-11T15:57:12.903Z,3.90
2023-03-11T15:59:39.534Z,4.24
2023-03-11T16:02:28.149Z,3.65
2023-03-11T16:04:56.225Z,3.70
2023-03-11T16:07:38.549Z,4.03
2023-03-11T16:10:06.481Z,3.68
2023-03-11T16:12:33.239Z,3.89
2023-03-11T16:14:59.714Z,4.23
2023-03-11T16:17:27.558Z,5.19
2023-03-11T16:19:58.291Z,6.55
2023-03-11T16:22:34.301Z,5.09
2023-03-11T16:25:02.675Z,4.96
2023-03-11T16:27:30.422Z,5.28
2023-03-11T16:29:56.921Z,4.85
2023-03-11T16:32:23.497Z,5.01
2023-03-11T16:34:49.972Z,5.42
2023-03-11T16:37:17.998Z,5.88
2023-03-11T16:39:44.557Z,5.04
2023-03-11T16:42:11.026Z,4.86
2023-03-11T16:44:37.493Z,5.69
2023-03-11T16:47:04.017Z,5.20
2023-03-11T16:49:30.624Z,5.30
2023-03-11T16:51:57.116Z,5.77
2023-03-11T16:54:23.639Z,5.30
2023-03-11T16:56:50.092Z,6.14
2023-03-11T16:59:16.559Z,6.25
2023-03-11T17:01:43.120Z,6.00
2023-03-11T17:04:09.672Z,6.55
2023-03-11T17:06:36.127Z,6.53
2023-03-11T17:09:02.620Z,6.01
2023-03-11T17:11:29.064Z,6.53
2023-03-11T17:14:03.255Z,6.83
2023-03-11T17:16:40.288Z,6.05
2023-03-11T17:19:06.833Z,6.43
2023-03-11T17:21:33.361Z,5.98
2023-03-11T17:23:59.902Z,6.27
2023-03-11T17:26:27.762Z,6.61
2023-03-11T17:28:54.274Z,6.37
2023-03-11T17:31:20.795Z,6.66
2023-03-11T17:33:47.261Z,7.20
2023-03-11T17:36:16.282Z,7.50
2023-03-11T17:38:44.322Z,7.49
2023-03-11T17:41:14.256Z,8.81
2023-03-11T17:43:42.418Z,9.22
2023-03-11T17:46:15.818Z,10.20
2023-03-11T17:48:44.190Z,8.67
2023-03-11T17:51:16.929Z,10.47
2023-03-11T17:53:46.072Z,12.60
2023-03-11T17:56:17.516Z,9.52
2023-03-11T17:58:44.468Z,9.82
2023-03-11T18:01:15.614Z,9.47
2023-03-11T18:03:42.733Z,10.19
2023-03-11T18:06:10.486Z,9.86
2023-03-11T18:08:37.004Z,10.33
2023-03-11T18:11:08.854Z,11.87
2023-03-11T18:13:37.693Z,12.42
2023-03-11T18:16:10.670Z,12.63
2023-03-11T18:18:38.252Z,12.28
2023-03-11T18:21:11.182Z,12.43
2023-03-11T18:23:38.969Z,13.28
2023-03-11T18:26:07.869Z,13.79
2023-03-11T18:28:34.915Z,13.55
2023-03-11T18:31:09.472Z,13.68
2023-03-11T18:33:36.953Z,13.11
2023-03-11T18:36:24.661Z,12.23
2023-03-11T18:38:59.356Z,12.59
2023-03-11T18:41:27.675Z,14.53
2023-03-11T18:43:56.632Z,15.28
2023-03-11T18:46:24.989Z,16.38
2023-03-11T18:48:54.647Z,15.80
2023-03-11T18:51:21.175Z,15.64
2023-03-11T18:53:47.727Z,15.08
2023-03-11T18:56:16.825Z,14.77
2023-03-11T18:58:43.998Z,14.02
2023-03-11T19:01:15.163Z,12.76
2023-03-11T19:03:43.479Z,13.26
2023-03-11T19:06:12.688Z,13.64
2023-03-11T19:08:40.051Z,13.60
2023-03-11T19:11:08.601Z,12.41
2023-03-11T19:13:46.313Z,12.70
2023-03-11T19:16:16.446Z,11.63
2023-03-11T19:18:42.947Z,11.49
2023-03-11T19:21:12.759Z,10.78
2023-03-11T19:23:39.354Z,10.62
2023-03-11T19:26:06.084Z,11.13
2023-03-11T19:28:32.632Z,11.34
2023-03-11T19:30:59.624Z,10.71
2023-03-11T19:33:27.315Z,10.55
2023-03-11T19:35:56.358Z,10.69
2023-03-11T19:38:24.206Z,11.58
2023-03-11T19:40:59.685Z,11.60
2023-03-11T19:43:26.910Z,11.95
2023-03-11T19:45:53.530Z,13.06
2023-03-11T19:48:20.085Z,12.63
2023-03-11T19:50:50.974Z,13.73
2023-03-11T19:53:19.287Z,14.49
2023-03-11T19:55:49.626Z,15.46
2023-03-11T19:58:16.113Z,16.74
2023-03-11T20:00:44.043Z,18.46
2023-03-11T20:03:12.586Z,17.95
2023-03-11T20:05:41.611Z,14.21
2023-03-11T20:08:10.394Z,14.66
2023-03-11T20:10:39.190Z,14.34
2023-03-11T20:13:05.690Z,14.58
2023-03-11T20:15:32.267Z,14.21
2023-03-11T20:17:58.857Z,14.32
2023-03-11T20:20:25.370Z,14.82
2023-03-11T20:22:51.902Z,14.72
2023-03-11T20:25:18.384Z,14.81
2023-03-11T20:27:44.910Z,15.89
2023-03-11T20:30:12.790Z,15.90
2023-03-11T20:32:39.529Z,16.71
2023-03-11T20:35:06.655Z,17.68
2023-03-11T20:37:33.172Z,16.89
2023-03-11T20:39:59.675Z,16.82
2023-03-11T20:42:26.295Z,16.43
2023-03-11T20:44:54.098Z,16.53
2023-03-11T20:47:20.978Z,17.42
2023-03-11T20:49:47.516Z,16.25
2023-03-11T20:52:14.071Z,15.83
2023-03-11T20:54:40.667Z,15.14
2023-03-11T20:57:07.729Z,13.91
2023-03-11T20:59:34.305Z,14.29
2023-03-11T21:02:00.913Z,13.83
2023-03-11T21:04:27.558Z,14.25
2023-03-11T21:06:54.223Z,15.37
2023-03-11T21:09:20.810Z,14.92
2023-03-11T21:11:47.406Z,14.60
2023-03-11T21:14:16.873Z,15.96
2023-03-11T21:16:44.912Z,15.44
2023-03-11T21:19:12.559Z,15.07
2023-03-11T21:21:39.741Z,14.80
2023-03-11T21:24:06.780Z,14.16
2023-03-11T21:26:33.566Z,14.78
2023-03-11T21:29:00.234Z,13.59
2023-03-11T21:31:29.255Z,14.08
2023-03-11T21:33:58.474Z,15.85
2023-03-11T21:36:31.582Z,16.45
2023-03-11T21:38:58.329Z,17.70
2023-03-11T21:41:27.421Z,12.42
2023-03-11T21:44:03.532Z,10.00
2023-03-11T21:46:32.049Z,10.36
2023-03-11T21:49:00.147Z,9.77
2023-03-11T21:51:27.669Z,10.21
2023-03-11T21:53:54.428Z,10.59
2023-03-11T21:56:21.047Z,10.65
2023-03-11T21:58:47.719Z,9.90
2023-03-11T22:01:14.430Z,9.63
2023-03-11T22:03:41.474Z,9.74
2023-03-11T22:06:11.373Z,9.42
2023-03-11T22:08:38.674Z,9.80
2023-03-11T22:11:11.399Z,8.95
2023-03-11T22:13:37.964Z,8.85
2023-03-11T22:16:06.806Z,9.11
2023-03-11T22:18:33.627Z,9.13
2023-03-11T22:21:25.329Z,9.35
2023-03-11T22:23:57.075Z,9.84
2023-03-11T22:26:23.558Z,10.59
2023-03-11T22:28:50.074Z,11.80
2023-03-11T22:31:16.727Z,12.54
2023-03-11T22:33:45.188Z,13.02
2023-03-11T22:36:11.995Z,12.36
2023-03-11T22:38:41.505Z,11.90
2023-03-11T22:41:09.262Z,12.34
2023-03-11T22:43:36.919Z,11.94
2023-03-11T22:46:05.345Z,10.79
2023-03-11T22:48:33.202Z,8.92
2023-03-11T22:50:59.725Z,8.80
2023-03-11T22:53:26.250Z,9.30
2023-03-11T22:55:52.807Z,9.66
2023-03-11T22:58:19.456Z,9.36
2023-03-11T23:00:45.973Z,10.29
2023-03-11T23:03:13.088Z,10.69
2023-03-11T23:05:39.616Z,10.21
2023-03-11T23:08:06.134Z,10.94
2023-03-11T23:10:32.617Z,10.70
2023-03-11T23:12:59.094Z,11.03
2023-03-11T23:15:25.620Z,11.54
2023-03-11T23:17:52.096Z,11.36
2023-03-11T23:20:18.663Z,11.26
2023-03-11T23:22:45.229Z,11.70
2023-03-11T23:25:15.326Z,11.89
2023-03-11T23:27:43.726Z,12.47
2023-03-11T23:30:14.210Z,12.20
2023-03-11T23:32:40.782Z,12.35
2023-03-11T23:35:07.660Z,12.42
2023-03-11T23:37:34.135Z,12.48
2023-03-11T23:40:00.630Z,12.38
2023-03-11T23:42:27.167Z,12.15
2023-03-11T23:44:54.286Z,12.34
2023-03-11T23:47:20.785Z,12.60
2023-03-11T23:49:47.254Z,12.82
2023-03-11T23:52:13.877Z,12.58
2023-03-11T23:54:40.363Z,12.16
2023-03-11T23:57:06.870Z,12.38
2023-03-11T23:59:33.540Z,12.49
